Flight Track Log - Related Links

Times and Time Zones

All times are in EDT time to prevent confusion due to time zone crossing. See the N8921B flight status page for this flight to view local times or setup timezone preferences in your user account.

Time Position Orientation Groundspeed Altitude Reporting Facility
EDT Latitude Longitude Course Direction KTS MPH feet Rate Location/Type
Wed 02:52:05 PM 42.2325 -83.3333 53° Northeast 147 169 1,200  Level FAA TRACON SMA TRACON (SMA)
Wed 02:52:44 PM 42.2503 -83.3019 53° Northeast 172 198 2,400 1,899 Climbing FAA TRACON SMA TRACON (SMA)
Wed 02:53:24 PM 42.2728 -83.2619 53° Northeast 207 238 3,700 1,704 Climbing FAA TRACON SMA TRACON (SMA)
Wed 02:54:05 PM 42.3003 -83.2131 73° East 258 297 4,700 2,370 Climbing FAA TRACON SMA TRACON (SMA)
Wed 02:54:45 PM 42.3142 -83.1514 109° East 269 310 6,900 2,506 Climbing FAA TRACON SMA TRACON (SMA)
Wed 02:55:24 PM 42.2969 -83.0822 115° Southeast 307 353 8,000 2,250 Climbing FAA TRACON SMA TRACON (SMA)
Wed 02:56:05 PM 42.2719 -83.0097 116° Southeast 321 369 9,900 2,370 Climbing FAA TRACON SMA TRACON (SMA)
Wed 02:56:45 PM 42.2450 -82.9336 115° Southeast 323 372 11,200 1,671 Climbing FAA TRACON SMA TRACON (SMA)
Wed 02:57:24 PM 42.2178 -82.8542 115° Southeast 357 411 12,100 1,275 Climbing FAA TRACON SMA TRACON (SMA)
Wed 02:58:05 PM 42.1883 -82.7703 115° Southeast 375 432 12,900 1,630 Climbing FAA TRACON SMA TRACON (SMA)
Wed 02:58:45 PM 42.1583 -82.6836 117° Southeast 385 443 14,300 1,899 Climbing FAA TRACON SMA TRACON (SMA)
Wed 02:59:24 PM 42.1236 -82.5933 112° Southeast 382 440 15,400 1,514 Climbing Cleveland Center
Wed 03:00:36 PM 42.0822 -82.4547 102° East 387 445 17,100 1,364 Climbing Cleveland Center
Wed 03:01:36 PM 42.0539 -82.2694 102° East 399 459 18,400 1,250 Climbing Cleveland Center
Wed 03:02:36 PM 42.0289 -82.1094 134° Southeast 414 476 19,600 1,100 Climbing Cleveland Center
Wed 03:03:36 PM 41.9472 -81.9958 144° Southeast 410 472 20,600 1,000 Climbing Cleveland Center
Wed 03:04:36 PM 41.8625 -81.9131 145° Southeast 420 483 21,600 1,100 Climbing Cleveland Center
Wed 03:05:36 PM 41.7636 -81.8192 144° Southeast 426 490 22,800 1,200 Climbing Cleveland Center
Wed 03:06:36 PM 41.6667 -81.7256 155° Southeast 431 496 24,000 1,250 Climbing Cleveland Center
Wed 03:07:36 PM 41.5608 -81.6597 157° South 425 489 25,300 1,050 Climbing Cleveland Center
Wed 03:08:36 PM 41.4428 -81.5942 158° South 417 480 26,100 750 Climbing Cleveland Center
Wed 03:09:36 PM 41.3411 -81.5400 157° South 423 487 26,800 450 Climbing Cleveland Center
Wed 03:10:36 PM 41.2517 -81.4889 158° South 433 498 27,000 100 Climbing Cleveland Center
Wed 03:11:36 PM 41.1375 -81.4267 158° South 439 505 27,000  Level Cleveland Center
Wed 03:12:36 PM 40.9819 -81.3422 157° South 455 524 27,000  Level Cleveland Center
Wed 03:13:48 PM 40.8781 -81.2833 158° South 455 524 27,000  Level Cleveland Center
Wed 03:14:48 PM 40.7283 -81.2022 158° South 450 518 27,000  Level Cleveland Center
Wed 03:15:48 PM 40.6264 -81.1467 157° South 450 518 27,000  Level Cleveland Center
Wed 03:16:48 PM 40.5122 -81.0828 157° South 450 518 27,000  Level Cleveland Center
Wed 03:17:48 PM 40.3956 -81.0192 157° South 450 518 27,000  Level Cleveland Center
Wed 03:18:48 PM 40.2792 -80.9558 157° South 450 518 27,000  Level Cleveland Center
Wed 03:19:48 PM 40.1647 -80.8928 157° South 450 518 27,000  Level Cleveland Center
Wed 03:20:49 PM 40.0503 -80.8300 152° Southeast 450 518 27,000  Level Cleveland Center
Wed 03:21:49 PM 39.9419 -80.7536 147° Southeast 450 518 27,000  Level Cleveland Center
Wed 03:22:49 PM 39.8358 -80.6642 147° Southeast 450 518 27,000  Level Cleveland Center
Wed 03:23:49 PM 39.7317 -80.5750 147° Southeast 450 518 27,000  Level Cleveland Center
Wed 03:26:11 PM 39.4856 -80.3700 148° Southeast 420 483 27,000  Level Washington Center
Wed 03:27:12 PM 39.3783 -80.2850 148° Southeast 430 495 27,000  Level Washington Center
Wed 03:28:12 PM 39.2753 -80.2006 148° Southeast 436 502 27,000  Level Washington Center
Wed 03:29:13 PM 39.1722 -80.1164 147° Southeast 442 509 27,000 -198 Level Washington Center
Wed 03:30:13 PM 39.0672 -80.0272 151° Southeast 442 509 26,600 -915 Descending Washington Center
Wed 03:31:11 PM 38.9514 -79.9453 149° Southeast 437 503 25,200 -807 Descending Washington Center
Wed 03:32:12 PM 38.8478 -79.8644 147° Southeast 432 497 25,000 -98 Descending Washington Center
Wed 03:33:13 PM 38.7486 -79.7817 148° Southeast 432 497 25,000  Level Washington Center
Wed 03:34:11 PM 38.6472 -79.7014 147° Southeast 432 497 25,000  Level Washington Center
Wed 03:35:12 PM 38.5539 -79.6244 149° Southeast 437 503 25,000 -298 Level Washington Center
Wed 03:36:12 PM 38.4503 -79.5447 147° Southeast 437 503 24,400 -900 Descending Washington Center
Wed 03:37:12 PM 38.3506 -79.4625 148° Southeast 437 503 23,200 -1,240 Descending Washington Center
Wed 03:38:13 PM 38.2531 -79.3861 148° Southeast 431 496 21,900 -1,091 Descending Washington Center
Wed 03:39:13 PM 38.1472 -79.3014 148° Southeast 416 479 21,000 -458 Descending Washington Center
Wed 03:40:11 PM 38.0514 -79.2256 148° Southeast 411 473 21,000  Level Washington Center
Wed 03:41:11 PM 37.9578 -79.1500 132° Southeast 405 466 21,000  Level Washington Center
Wed 03:42:11 PM 37.8858 -79.0492 110° East 382 440 21,000  Level Washington Center
Wed 03:43:12 PM 37.8478 -78.9158 110° East 388 447 21,000 -298 Level Washington Center
Wed 03:44:12 PM 37.8097 -78.7828 110° East 388 447 20,400 -1,426 Descending Washington Center
Wed 03:45:14 PM 37.7753 -78.6606 110° East 399 459 18,100 -2,400 Descending Washington Center
Wed 03:46:12 PM 37.7369 -78.5303 110° East 399 459 15,600 -2,370 Descending Washington Center
Wed 03:47:13 PM 37.7022 -78.4081 110° East 387 445 13,400 -2,269 Descending Washington Center
Wed 03:48:11 PM 37.6656 -78.2808 111° Southeast 368 423 11,100 -1,983 Descending Washington Center
Wed 03:49:11 PM 37.6344 -78.1775 112° Southeast 331 381 9,500 -1,339 Descending Washington Center
Wed 03:50:12 PM 37.6031 -78.0794 94° East 307 353 8,400 -1,190 Descending Washington Center
Wed 03:51:12 PM 37.5969 -77.9769 81° East 295 339 7,100 -1,140 Descending Washington Center
Wed 03:52:13 PM 37.6092 -77.8778 79° East 284 327 6,100 -992 Descending Washington Center
Wed 03:53:13 PM 37.6236 -77.7811 81° East 284 327 5,100 -864 Descending Washington Center
Wed 03:54:11 PM 37.6358 -77.6819 95° East 284 327 4,400 -555 Descending Washington Center
Wed 03:55:12 PM 37.6289 -77.5900 101° East 273 314 4,000 -295 Descending Washington Center
Wed 03:56:13 PM 37.6158 -77.5031 98° East 261 300 3,800 -504 Descending Washington Center
Wed 03:57:11 PM 37.6067 -77.4242 105° East 246 283 3,000 -778 Descending Washington Center
Wed 03:58:55 PM 37.5833 -77.3167 180° South 167 192 1,700 -836 Descending Potomac TRACON
Wed 03:59:56 PM 37.5333 -77.3167 180° South 156 180 700 -984 Descending Potomac TRACON

Login

Don't have an account? Register now (free) for customized features, flight alerts, and more!